createdAt,value
2019-05-10T00:01:18.699Z,9.3
2019-05-10T00:06:15.805Z,9
2019-05-10T00:11:12.866Z,9
2019-05-10T00:16:09.935Z,8.9
2019-05-10T00:21:07.103Z,9.2
2019-05-10T00:26:04.187Z,9.4
2019-05-10T00:31:01.231Z,9.3
2019-05-10T00:35:58.355Z,9.3
2019-05-10T00:40:55.583Z,9.1
2019-05-10T00:45:52.477Z,9.2
2019-05-10T00:50:49.601Z,8.9
2019-05-10T00:55:46.594Z,8.6
2019-05-10T01:00:43.558Z,8.4
2019-05-10T01:05:40.472Z,8.2
2019-05-10T01:10:37.381Z,8.3
2019-05-10T01:15:34.779Z,8.1
2019-05-10T01:20:31.954Z,8.3
2019-05-10T01:25:34.948Z,8.4
2019-05-10T01:30:26.046Z,8.2
2019-05-10T01:35:23.189Z,8.1
2019-05-10T01:40:20.275Z,8
2019-05-10T01:45:17.219Z,8
2019-05-10T01:50:13.979Z,7.7
2019-05-10T01:55:11.197Z,7.8
2019-05-10T02:00:08.179Z,7.7
2019-05-10T02:05:05.224Z,7.6
2019-05-10T02:10:02.211Z,7.4
2019-05-10T02:14:59.278Z,7.4
2019-05-10T02:19:56.301Z,7.6
2019-05-10T02:24:53.446Z,7.9
2019-05-10T02:29:50.623Z,8
2019-05-10T02:34:47.746Z,8.3
2019-05-10T02:39:44.968Z,8.1
2019-05-10T02:44:42.256Z,8.2
2019-05-10T02:49:39.153Z,8.1
2019-05-10T02:54:36.253Z,7.8
2019-05-10T02:59:33.204Z,7.6
2019-05-10T03:04:30.183Z,7.1
2019-05-10T03:09:27.001Z,7.2
2019-05-10T03:14:23.928Z,7.4
2019-05-10T03:19:20.970Z,7.2
2019-05-10T03:24:18.094Z,7.2
2019-05-10T03:29:15.187Z,6.7
2019-05-10T03:34:12.215Z,6.8
2019-05-10T03:39:09.214Z,7
2019-05-10T03:44:06.346Z,7.1
2019-05-10T03:49:03.664Z,7.3
2019-05-10T03:54:00.911Z,7.4
2019-05-10T03:58:58.194Z,7.6
2019-05-10T04:03:55.467Z,9.3
2019-05-10T04:08:53.629Z,11.8
2019-05-10T04:13:52.357Z,11.6
2019-05-10T04:18:49.906Z,11
2019-05-10T04:23:47.042Z,10.6
2019-05-10T04:28:44.146Z,10.3
2019-05-10T04:33:41.327Z,11.6
2019-05-10T04:38:38.775Z,12.1
2019-05-10T04:43:36.440Z,12.9
2019-05-10T04:48:33.959Z,12.8
2019-05-10T04:53:31.285Z,13.1
2019-05-10T04:58:28.827Z,13.1
2019-05-10T05:03:26.319Z,12.4
2019-05-10T05:08:23.422Z,12.4
2019-05-10T05:13:20.518Z,12.2
2019-05-10T05:18:17.799Z,12.1
2019-05-10T05:23:14.968Z,12.5
2019-05-10T05:28:11.796Z,11.3
2019-05-10T05:33:08.868Z,12
2019-05-10T05:38:05.801Z,12.1
2019-05-10T05:43:08.012Z,11.9
2019-05-10T05:48:00.164Z,11.5
2019-05-10T05:52:57.176Z,11.4
2019-05-10T05:57:54.160Z,11.6
2019-05-10T06:02:51.272Z,12.5
2019-05-10T06:07:52.075Z,13.3
2019-05-10T06:12:50.286Z,15.6
2019-05-10T06:17:55.420Z,16.6
2019-05-10T06:23:04.142Z,18
2019-05-10T06:27:43.339Z,20.4
2019-05-10T06:32:42.336Z,20
2019-05-10T06:37:40.378Z,19.7
2019-05-10T06:42:38.222Z,19.7
2019-05-10T06:47:35.221Z,19
2019-05-10T06:52:32.372Z,18.5
2019-05-10T06:57:29.899Z,20.3
2019-05-10T07:02:32.298Z,21.7
2019-05-10T07:07:43.021Z,25.6
2019-05-10T07:12:29.859Z,29.8
2019-05-10T07:17:27.514Z,34
2019-05-10T07:22:29.010Z,32.8
2019-05-10T07:27:26.830Z,32.1
2019-05-10T07:32:25.146Z,35.7
2019-05-10T07:37:24.295Z,37.2
2019-05-10T07:42:23.553Z,36.7
2019-05-10T07:47:23.781Z,34.1
2019-05-10T07:52:19.877Z,35.5
2019-05-10T07:57:18.457Z,33.4
2019-05-10T08:02:14.864Z,27
2019-05-10T08:07:10.434Z,33.6
2019-05-10T08:12:09.812Z,32.2
2019-05-10T08:17:06.191Z,33
2019-05-10T08:22:04.481Z,34.5
2019-05-10T08:27:07.511Z,33.2
2019-05-10T08:32:00.170Z,30.8
2019-05-10T08:36:56.822Z,22.5
2019-05-10T08:42:01.160Z,18.8
2019-05-10T08:46:44.446Z,18.8
2019-05-10T08:51:43.705Z,20.8
2019-05-10T08:56:35.225Z,19.5
2019-05-10T09:01:38.731Z,20.2
2019-05-10T09:06:28.779Z,18.9
2019-05-10T09:11:24.893Z,20.2
2019-05-10T09:16:17.268Z,21.6
2019-05-10T09:21:15.510Z,26.9
2019-05-10T09:26:16.336Z,22.7
2019-05-10T09:31:22.532Z,21.4
2019-05-10T09:36:09.304Z,20.8
2019-05-10T09:41:06.022Z,20.8
2019-05-10T09:46:03.528Z,21.9
2019-05-10T09:51:03.950Z,20.5
2019-05-10T09:56:02.477Z,20
2019-05-10T10:01:10.862Z,19.9
2019-05-10T10:05:55.003Z,20.7
2019-05-10T10:10:49.031Z,23.7
2019-05-10T10:15:51.916Z,30
2019-05-10T10:20:48.672Z,22.8
2019-05-10T10:25:45.387Z,27.1
2019-05-10T10:30:43.166Z,26.7
2019-05-10T10:35:41.125Z,23.7
2019-05-10T10:40:44.020Z,19.5
2019-05-10T10:45:33.044Z,18.3
2019-05-10T10:50:28.757Z,24
2019-05-10T10:55:30.249Z,26
2019-05-10T11:00:27.612Z,21.1
2019-05-10T11:05:22.510Z,19.9
2019-05-10T11:10:22.092Z,18.7
2019-05-10T11:15:16.374Z,18.3
2019-05-10T11:20:12.250Z,19.4
2019-05-10T11:25:12.508Z,20.2
2019-05-10T11:30:07.329Z,20.5
2019-05-10T11:35:05.587Z,22.9
2019-05-10T11:40:04.105Z,28.4
2019-05-10T11:45:04.283Z,24
2019-05-10T11:50:06.190Z,20.1
2019-05-10T11:54:57.757Z,20.8
2019-05-10T11:59:54.713Z,21.1
2019-05-10T12:04:52.772Z,22
2019-05-10T12:09:53.162Z,20.6
2019-05-10T12:14:46.867Z,19.4
2019-05-10T12:19:47.899Z,18.7
2019-05-10T12:24:53.640Z,18.7
2019-05-10T12:29:37.172Z,19.9
2019-05-10T12:34:34.450Z,21.1
2019-05-10T12:39:32.477Z,20.4
2019-05-10T12:44:32.996Z,23.5
2019-05-10T12:49:28.417Z,24.4
2019-05-10T12:54:26.905Z,21.7
2019-05-10T12:59:24.119Z,19.5
2019-05-10T13:04:23.298Z,21.3
2019-05-10T13:09:18.184Z,19.4
2019-05-10T13:14:14.743Z,19.7
2019-05-10T13:19:13.995Z,20.3
2019-05-10T13:24:09.367Z,21.6
2019-05-10T13:29:10.302Z,21.5
2019-05-10T13:34:05.811Z,21.7
2019-05-10T13:39:03.805Z,22.6
2019-05-10T13:44:04.771Z,22.1
2019-05-10T13:48:59.835Z,22.4
2019-05-10T13:53:58.875Z,24.5
2019-05-10T13:58:56.877Z,25.1
2019-05-10T14:04:00.853Z,24.1
2019-05-10T14:08:52.059Z,21.5
2019-05-10T14:13:48.042Z,21
2019-05-10T14:18:44.540Z,22.1
2019-05-10T14:23:41.607Z,21
2019-05-10T14:28:38.501Z,22.1
2019-05-10T14:33:35.928Z,22.6
2019-05-10T14:38:33.462Z,21.6
2019-05-10T14:43:30.587Z,20.7
2019-05-10T14:48:28.609Z,21.5
2019-05-10T14:53:25.436Z,19.6
2019-05-10T14:58:21.141Z,19.5
2019-05-10T15:03:17.985Z,19.5
2019-05-10T15:08:14.835Z,19
2019-05-10T15:13:11.586Z,18.8
2019-05-10T15:18:08.520Z,17.8
2019-05-10T15:23:05.347Z,17.6
2019-05-10T15:28:02.017Z,17.6
2019-05-10T15:32:59.002Z,17.5
2019-05-10T15:37:56.253Z,17.5
2019-05-10T15:42:53.359Z,17.5
2019-05-10T15:47:51.964Z,17.9
2019-05-10T15:52:48.765Z,17.2
2019-05-10T15:57:44.865Z,16.1
2019-05-10T16:02:41.633Z,15.4
2019-05-10T16:07:38.226Z,15.4
2019-05-10T16:12:37.651Z,14.8
2019-05-10T16:17:32.340Z,14.9
2019-05-10T16:22:30.209Z,14.6
2019-05-10T16:27:26.284Z,13.6
2019-05-10T16:32:23.113Z,13
2019-05-10T16:37:19.896Z,12.6
2019-05-10T16:42:16.807Z,12.9
2019-05-10T16:47:13.664Z,13.2
2019-05-10T16:52:10.656Z,13.1
2019-05-10T16:57:07.749Z,12.9
2019-05-10T17:02:06.442Z,12.7
2019-05-10T17:07:02.096Z,12.9
2019-05-10T17:11:59.270Z,12.2
2019-05-10T17:16:58.700Z,11.3
2019-05-10T17:21:53.016Z,11.2
2019-05-10T17:26:49.812Z,10.6
2019-05-10T17:31:47.686Z,10.1
2019-05-10T17:36:43.270Z,10.2
2019-05-10T17:41:40.099Z,9.8
2019-05-10T17:46:37.014Z,9.4
2019-05-10T17:51:34.027Z,9.3
2019-05-10T17:56:32.628Z,9.1
2019-05-10T18:01:27.609Z,9.2
2019-05-10T18:06:24.636Z,8.7
2019-05-10T18:11:21.374Z,8.5
2019-05-10T18:16:18.476Z,8.6
2019-05-10T18:21:21.271Z,8.4
2019-05-10T18:26:12.638Z,8.2
2019-05-10T18:31:09.674Z,8.1
2019-05-10T18:36:06.832Z,8.1
2019-05-10T18:41:05.220Z,7.9
2019-05-10T18:46:02.756Z,7.8
2019-05-10T18:50:58.294Z,7.9
2019-05-10T18:55:55.643Z,7.8
2019-05-10T19:00:55.886Z,7.7
2019-05-10T19:05:50.136Z,7.6
2019-05-10T19:10:47.263Z,7.7
2019-05-10T19:15:45.947Z,7.8
2019-05-10T19:20:41.552Z,7.6
2019-05-10T19:25:38.684Z,7.7
2019-05-10T19:30:35.830Z,7.4
2019-05-10T19:35:35.495Z,7.4
2019-05-10T19:40:30.232Z,7.3
2019-05-10T19:45:30.854Z,7.4
2019-05-10T19:50:30.656Z,7.4
2019-05-10T19:55:21.921Z,7.2
2019-05-10T20:00:19.207Z,7.2
2019-05-10T20:05:16.276Z,7.2
2019-05-10T20:10:13.370Z,7.4
2019-05-10T20:15:10.621Z,7.5
2019-05-10T20:20:07.875Z,7.2
2019-05-10T20:25:05.000Z,7.2
2019-05-10T20:30:02.140Z,7.2
2019-05-10T20:34:59.467Z,7.2
2019-05-10T20:39:56.657Z,7
2019-05-10T20:45:06.521Z,7
2019-05-10T20:49:50.996Z,7.1
2019-05-10T20:54:48.186Z,6.9
2019-05-10T20:59:45.273Z,6.9
2019-05-10T21:04:42.506Z,6.8
2019-05-10T21:09:39.765Z,6.7
2019-05-10T21:14:37.032Z,6.6
2019-05-10T21:19:34.239Z,6.6
2019-05-10T21:24:31.494Z,6.7
2019-05-10T21:29:28.596Z,6.6
2019-05-10T21:34:25.787Z,6.6
2019-05-10T21:39:22.928Z,6.5
2019-05-10T21:44:19.975Z,6.4
2019-05-10T21:49:17.388Z,6.2
2019-05-10T21:54:14.420Z,6.1
2019-05-10T21:59:11.291Z,6.2
2019-05-10T22:04:08.537Z,6
2019-05-10T22:09:05.293Z,6
2019-05-10T22:14:02.486Z,5.8
2019-05-10T22:18:59.580Z,5.7
2019-05-10T22:23:56.686Z,5.8
2019-05-10T22:28:53.875Z,5.9
2019-05-10T22:33:51.256Z,5.8
2019-05-10T22:39:04.504Z,5.7
2019-05-10T22:43:45.470Z,5.6
2019-05-10T22:48:42.405Z,5.7
2019-05-10T22:53:39.490Z,5.5
2019-05-10T22:58:36.579Z,5.6
2019-05-10T23:03:33.846Z,5.7
2019-05-10T23:08:31.179Z,5.7
2019-05-10T23:13:28.365Z,5.7
2019-05-10T23:18:25.495Z,5.6
2019-05-10T23:23:22.678Z,5.6
2019-05-10T23:28:19.911Z,5.3
2019-05-10T23:33:16.925Z,5.2
2019-05-10T23:38:14.029Z,5.2
2019-05-10T23:43:10.954Z,5
2019-05-10T23:48:08.187Z,5
2019-05-10T23:53:05.228Z,5.1
2019-05-10T23:58:02.137Z,4.9
